Time;durP1;ratioP1;P1;durP2;ratioP2;P2;SDS_P1;SDS_P2;PMS_P1;PMS_P2;Temp;Humidity;BMP_temperature;BMP_pressure;BME280_temperature;BME280_humidity;BME280_pressure;Samples;Min_cycle;Max_cycle;Signal;HPM_P1;HPM_P2
2022/03/22 00:01:29;;;;;;;45.10;28.45;;;;;;;;;;5000380;28;93511;-74
2022/03/22 00:03:55;;;;;;;49.40;28.70;;;;;;;;;;4998159;28;92209;-74
2022/03/22 00:06:22;;;;;;;48.35;28.50;;;;;;;;;;4996268;28;93752;-73
2022/03/22 00:08:48;;;;;;;49.85;29.13;;;;;;;;;;4995943;28;93656;-73
2022/03/22 00:11:15;;;;;;;45.97;28.45;;;;;;;;;;4998971;28;92290;-73
2022/03/22 00:13:43;;;;;;;47.78;29.25;;;;;;;;;;4994195;28;96228;-73
2022/03/22 00:16:09;;;;;;;44.33;27.52;;;;;;;;;;4995836;28;92330;-73
2022/03/22 00:18:55;;;;;;;44.65;28.15;;;;;;;;;;4995426;28;93422;-73
2022/03/22 00:21:22;;;;;;;46.80;29.05;;;;;;;;;;4995484;28;93824;-73
2022/03/22 00:23:49;;;;;;;48.67;28.70;;;;;;;;;;4995988;28;92258;-74
2022/03/22 00:26:16;;;;;;;46.05;28.58;;;;;;;;;;4995803;28;93545;-73
2022/03/22 00:28:43;;;;;;;47.90;28.65;;;;;;;;;;4995640;28;93938;-73
2022/03/22 00:31:09;;;;;;;50.50;29.83;;;;;;;;;;4996205;28;91549;-74
2022/03/22 00:33:36;;;;;;;50.15;27.67;;;;;;;;;;4997919;28;92886;-73
2022/03/22 00:36:02;;;;;;;47.58;27.88;;;;;;;;;;4995749;28;92152;-73
2022/03/22 00:38:29;;;;;;;49.95;28.98;;;;;;;;;;4994265;28;95239;-74
2022/03/22 00:40:55;;;;;;;46.60;28.63;;;;;;;;;;4995610;28;93658;-73
2022/03/22 00:43:22;;;;;;;47.55;29.27;;;;;;;;;;4995010;28;92349;-74
2022/03/22 00:45:49;;;;;;;53.50;29.55;;;;;;;;;;4997816;28;93229;-74
2022/03/22 00:48:17;;;;;;;46.13;27.80;;;;;;;;;;4998644;28;93103;-74
2022/03/22 00:50:47;;;;;;;44.05;29.10;;;;;;;;;;4998802;28;92181;-74
2022/03/22 00:53:14;;;;;;;48.17;29.27;;;;;;;;;;4998877;28;93285;-74
2022/03/22 00:55:40;;;;;;;44.38;27.55;;;;;;;;;;5002269;28;92789;-74
2022/03/22 00:58:07;;;;;;;45.97;27.50;;;;;;;;;;4998837;28;92957;-74
2022/03/22 01:00:34;;;;;;;48.00;27.45;;;;;;;;;;4997792;28;93632;-74
2022/03/22 01:03:02;;;;;;;52.40;28.67;;;;;;;;;;4997070;28;94721;-74
2022/03/22 01:05:29;;;;;;;41.33;25.90;;;;;;;;;;4998503;28;96312;-73
2022/03/22 01:08:00;;;;;;;46.05;27.17;;;;;;;;;;4998435;28;94001;-73
2022/03/22 01:10:27;;;;;;;51.83;28.08;;;;;;;;;;4998226;28;92259;-74
2022/03/22 01:12:54;;;;;;;44.10;27.67;;;;;;;;;;4998195;28;93386;-73
2022/03/22 01:15:21;;;;;;;52.38;29.88;;;;;;;;;;4998183;28;93614;-74
2022/03/22 01:17:49;;;;;;;48.35;29.38;;;;;;;;;;5001663;28;92193;-74
2022/03/22 01:20:16;;;;;;;47.38;28.67;;;;;;;;;;4998886;28;92426;-73
2022/03/22 01:22:44;;;;;;;50.53;29.83;;;;;;;;;;4997355;28;92388;-73
2022/03/22 01:25:15;;;;;;;50.60;30.80;;;;;;;;;;4998105;28;93854;-73
2022/03/22 01:27:43;;;;;;;53.55;31.25;;;;;;;;;;4996192;28;96375;-74
2022/03/22 01:30:12;;;;;;;49.13;31.83;;;;;;;;;;4998247;28;92282;-74
2022/03/22 01:32:39;;;;;;;51.65;32.13;;;;;;;;;;4998200;28;93448;-73
2022/03/22 01:35:06;;;;;;;56.60;32.55;;;;;;;;;;4997988;28;93559;-73
2022/03/22 01:37:33;;;;;;;60.17;32.88;;;;;;;;;;4998315;28;92268;-73
2022/03/22 01:39:59;;;;;;;53.85;32.30;;;;;;;;;;5001053;28;93521;-73
2022/03/22 01:42:26;;;;;;;51.95;31.27;;;;;;;;;;4997652;28;92452;-73
2022/03/22 01:44:52;;;;;;;56.83;32.83;;;;;;;;;;4998147;28;93370;-73
2022/03/22 01:47:19;;;;;;;55.30;33.65;;;;;;;;;;4996540;28;94940;-73
2022/03/22 01:49:47;;;;;;;50.95;31.17;;;;;;;;;;4997847;28;92367;-73
2022/03/22 01:52:14;;;;;;;56.38;31.92;;;;;;;;;;4996362;28;94696;-73
2022/03/22 01:54:41;;;;;;;56.05;31.65;;;;;;;;;;4997857;28;93807;-73
2022/03/22 01:57:09;;;;;;;53.45;32.13;;;;;;;;;;4996247;28;93269;-73
2022/03/22 01:59:35;;;;;;;52.70;31.65;;;;;;;;;;5000970;28;92900;-74
2022/03/22 02:07:37;;;;;;;55.05;30.30;;;;;;;;;;4996957;28;94098;-73
2022/03/22 02:10:04;;;;;;;52.25;30.75;;;;;;;;;;4997988;28;91500;-73
2022/03/22 02:12:31;;;;;;;52.40;30.67;;;;;;;;;;4997301;28;94631;-73
2022/03/22 02:14:57;;;;;;;48.03;30.70;;;;;;;;;;5001325;28;92111;-73
2022/03/22 02:17:23;;;;;;;53.53;31.42;;;;;;;;;;4997881;28;94762;-73
2022/03/22 02:19:50;;;;;;;51.80;30.90;;;;;;;;;;4997258;28;94744;-74
2022/03/22 02:22:17;;;;;;;51.35;30.73;;;;;;;;;;5000391;28;94377;-73
2022/03/22 02:24:43;;;;;;;53.40;31.08;;;;;;;;;;4996395;28;93756;-72
2022/03/22 02:27:10;;;;;;;55.75;29.95;;;;;;;;;;4997292;28;93516;-73
2022/03/22 02:29:36;;;;;;;50.63;30.02;;;;;;;;;;4997401;28;92266;-73
2022/03/22 02:32:04;;;;;;;49.95;29.60;;;;;;;;;;4997286;28;93802;-73
2022/03/22 02:34:30;;;;;;;55.67;29.85;;;;;;;;;;4997331;28;91818;-73
2022/03/22 02:36:59;;;;;;;47.72;30.13;;;;;;;;;;4997348;28;92345;-73
2022/03/22 02:39:25;;;;;;;53.67;30.92;;;;;;;;;;4996936;28;93554;-73
2022/03/22 02:41:53;;;;;;;50.35;30.63;;;;;;;;;;4995211;28;95919;-73
2022/03/22 02:44:19;;;;;;;49.92;29.98;;;;;;;;;;4999624;28;92133;-73
2022/03/22 02:46:46;;;;;;;52.35;28.70;;;;;;;;;;4997018;28;93663;-73
2022/03/22 02:49:13;;;;;;;47.78;29.10;;;;;;;;;;4996415;28;92337;-73
2022/03/22 02:51:40;;;;;;;51.28;30.20;;;;;;;;;;4996967;28;93398;-73
2022/03/22 02:54:06;;;;;;;48.30;28.13;;;;;;;;;;4996793;28;93653;-73
2022/03/22 02:56:33;;;;;;;50.45;30.50;;;;;;;;;;4995630;28;92270;-74
2022/03/22 02:59:00;;;;;;;58.95;32.20;;;;;;;;;;4997371;28;92892;-72
2022/03/22 03:01:26;;;;;;;53.63;31.13;;;;;;;;;;4996777;28;93369;-72
2022/03/22 03:03:55;;;;;;;59.25;32.00;;;;;;;;;;4996276;28;92404;-72
2022/03/22 03:06:21;;;;;;;55.00;33.05;;;;;;;;;;4998168;28;94690;-72
2022/03/22 03:08:47;;;;;;;53.08;31.50;;;;;;;;;;4996236;28;92387;-71
2022/03/22 03:11:14;;;;;;;55.80;33.47;;;;;;;;;;4996874;28;92478;-72
2022/03/22 03:16:25;;;;;;;56.42;32.63;;;;;;;;;;4996310;28;92361;-72
2022/03/22 03:18:52;;;;;;;59.38;34.63;;;;;;;;;;4996362;28;94545;-73
2022/03/22 03:21:18;;;;;;;59.88;34.13;;;;;;;;;;4996183;28;93985;-73
2022/03/22 03:23:44;;;;;;;62.30;34.60;;;;;;;;;;4995995;28;91643;-72
2022/03/22 03:26:11;;;;;;;56.67;32.30;;;;;;;;;;4996582;28;92757;-74
2022/03/22 03:28:37;;;;;;;57.35;34.58;;;;;;;;;;4999347;28;94124;-74
2022/03/22 03:31:04;;;;;;;53.75;32.65;;;;;;;;;;4994766;28;94788;-73
2022/03/22 03:33:31;;;;;;;57.75;33.70;;;;;;;;;;4996398;28;92951;-73
2022/03/22 03:35:57;;;;;;;58.53;34.55;;;;;;;;;;4996282;28;92377;-72
2022/03/22 03:38:23;;;;;;;58.15;34.58;;;;;;;;;;4996264;28;92251;-72
2022/03/22 03:43:36;;;;;;;57.25;34.85;;;;;;;;;;4964403;28;94413;-73
2022/03/22 03:48:48;;;;;;;60.92;34.70;;;;;;;;;;4996591;28;93129;-72
2022/03/22 03:51:14;;;;;;;64.55;35.85;;;;;;;;;;4999432;28;92352;-73
2022/03/22 03:53:40;;;;;;;71.35;37.80;;;;;;;;;;4996206;28;93780;-73
2022/03/22 03:56:07;;;;;;;60.65;35.80;;;;;;;;;;4992974;28;94834;-73
2022/03/22 03:58:35;;;;;;;68.43;37.60;;;;;;;;;;4996013;28;94979;-72
2022/03/22 04:01:01;;;;;;;64.70;35.97;;;;;;;;;;4995842;28;93135;-73
2022/03/22 04:03:28;;;;;;;60.53;35.70;;;;;;;;;;4996068;28;92293;-73
2022/03/22 04:05:54;;;;;;;69.78;37.03;;;;;;;;;;4996012;28;93456;-74
2022/03/22 04:08:21;;;;;;;68.50;36.45;;;;;;;;;;4995180;28;95090;-73
2022/03/22 04:10:47;;;;;;;60.83;36.42;;;;;;;;;;4998686;28;92442;-72
2022/03/22 04:13:14;;;;;;;64.55;35.67;;;;;;;;;;4996354;28;92181;-72
2022/03/22 04:15:41;;;;;;;59.28;35.20;;;;;;;;;;4994748;28;92430;-73
2022/03/22 04:18:07;;;;;;;62.95;35.58;;;;;;;;;;4995791;28;93102;-72
2022/03/22 04:20:33;;;;;;;64.32;34.88;;;;;;;;;;4995660;28;95965;-73
2022/03/22 04:23:00;;;;;;;59.88;34.95;;;;;;;;;;4999101;28;92390;-72
2022/03/22 04:25:26;;;;;;;62.33;34.90;;;;;;;;;;4999552;28;92453;-73
2022/03/22 04:33:22;;;;;;;68.35;36.40;;;;;;;;;;5000877;28;93820;-72
2022/03/22 04:35:50;;;;;;;67.32;36.63;;;;;;;;;;4998163;28;92291;-72
2022/03/22 04:38:16;;;;;;;57.20;35.92;;;;;;;;;;4999001;28;92867;-72
2022/03/22 04:40:42;;;;;;;69.95;38.30;;;;;;;;;;4998852;28;93630;-73
2022/03/22 04:43:09;;;;;;;65.95;37.05;;;;;;;;;;4999116;28;94551;-73
2022/03/22 04:45:35;;;;;;;62.72;35.70;;;;;;;;;;4996501;28;94817;-72
2022/03/22 04:48:02;;;;;;;62.40;35.92;;;;;;;;;;4998251;28;95223;-72
2022/03/22 04:50:29;;;;;;;66.85;36.65;;;;;;;;;;4998301;28;92340;-72
2022/03/22 04:58:26;;;;;;;63.00;35.53;;;;;;;;;;5006139;28;93757;-72
2022/03/22 05:00:52;;;;;;;68.68;37.70;;;;;;;;;;5004517;28;93983;-73
2022/03/22 05:03:19;;;;;;;63.15;37.10;;;;;;;;;;5002798;28;91613;-73
2022/03/22 05:08:32;;;;;;;66.28;35.78;;;;;;;;;;4998536;28;93733;-72
2022/03/22 05:10:59;;;;;;;68.10;37.60;;;;;;;;;;4996534;28;94796;-73
2022/03/22 05:13:26;;;;;;;64.47;37.92;;;;;;;;;;4997247;28;95312;-72
2022/03/22 05:15:52;;;;;;;63.22;36.35;;;;;;;;;;4998049;28;93654;-72
2022/03/22 05:18:22;;;;;;;62.78;37.95;;;;;;;;;;5001768;28;92220;-72
2022/03/22 05:20:48;;;;;;;60.35;34.42;;;;;;;;;;4997742;28;93783;-71
2022/03/22 05:23:16;;;;;;;64.55;36.40;;;;;;;;;;4998424;28;92357;-73
2022/03/22 05:25:43;;;;;;;59.17;34.60;;;;;;;;;;4998194;28;93486;-73
2022/03/22 05:28:09;;;;;;;68.18;37.90;;;;;;;;;;4996330;28;93350;-73
2022/03/22 05:30:36;;;;;;;61.90;35.97;;;;;;;;;;4997410;28;92272;-72
2022/03/22 05:33:02;;;;;;;63.97;35.47;;;;;;;;;;4998385;28;93162;-72
2022/03/22 05:35:28;;;;;;;66.15;36.45;;;;;;;;;;4995613;28;96404;-71
2022/03/22 05:37:55;;;;;;;69.35;37.55;;;;;;;;;;4997903;28;92389;-73
2022/03/22 05:40:21;;;;;;;68.18;36.25;;;;;;;;;;5000748;28;93720;-73
2022/03/22 05:42:48;;;;;;;64.28;36.88;;;;;;;;;;4997641;28;92322;-72
2022/03/22 05:45:15;;;;;;;67.25;35.90;;;;;;;;;;4997416;28;92782;-73
2022/03/22 05:47:41;;;;;;;67.25;35.85;;;;;;;;;;4997850;28;93140;-72
2022/03/22 05:50:09;;;;;;;67.25;37.28;;;;;;;;;;4997740;28;92291;-72
2022/03/22 05:52:43;;;;;;;62.38;35.90;;;;;;;;;;4997124;28;94912;-72
2022/03/22 05:55:10;;;;;;;62.25;36.47;;;;;;;;;;4998000;28;93689;-72
2022/03/22 05:57:37;;;;;;;61.63;36.42;;;;;;;;;;4997259;28;92337;-73
2022/03/22 06:00:07;;;;;;;61.95;36.85;;;;;;;;;;4995742;28;94824;-72
2022/03/22 06:02:37;;;;;;;66.03;35.85;;;;;;;;;;5000625;28;94920;-72
2022/03/22 06:05:05;;;;;;;65.43;36.78;;;;;;;;;;4997410;28;95352;-73
2022/03/22 06:07:31;;;;;;;62.03;35.90;;;;;;;;;;4997654;28;94095;-73
2022/03/22 06:09:58;;;;;;;58.58;35.33;;;;;;;;;;4997243;28;92938;-72
2022/03/22 06:12:24;;;;;;;64.07;36.03;;;;;;;;;;4997620;28;95425;-72
2022/03/22 06:15:14;;;;;;;61.50;35.88;;;;;;;;;;4997621;28;93413;-72
2022/03/22 06:17:37;;;;;;;61.95;35.83;;;;;;;;;;4997753;28;91472;-75
2022/03/22 06:20:03;;;;;;;62.35;35.90;;;;;;;;;;4997390;28;92797;-71
2022/03/22 06:22:30;;;;;;;59.55;35.90;;;;;;;;;;5000245;28;94159;-73
2022/03/22 06:24:56;;;;;;;56.47;34.40;;;;;;;;;;4995353;28;94731;-74
2022/03/22 06:27:22;;;;;;;60.90;34.75;;;;;;;;;;4997041;28;92864;-73
2022/03/22 06:29:49;;;;;;;61.60;35.25;;;;;;;;;;4997421;28;92255;-73
2022/03/22 06:32:15;;;;;;;61.58;36.53;;;;;;;;;;4997231;28;93009;-73
2022/03/22 06:34:42;;;;;;;58.45;34.50;;;;;;;;;;4997041;28;93204;-72
2022/03/22 06:37:08;;;;;;;60.78;36.40;;;;;;;;;;4999911;28;92219;-72
2022/03/22 06:39:35;;;;;;;59.75;33.90;;;;;;;;;;5005094;28;93220;-73
2022/03/22 06:42:01;;;;;;;66.05;36.55;;;;;;;;;;4997849;28;92977;-73
2022/03/22 06:44:27;;;;;;;58.53;35.05;;;;;;;;;;4999631;28;92742;-72
2022/03/22 06:46:54;;;;;;;58.90;34.88;;;;;;;;;;4995419;28;93679;-73
2022/03/22 06:49:22;;;;;;;62.22;37.38;;;;;;;;;;4995496;28;94612;-73
2022/03/22 06:51:48;;;;;;;58.63;35.28;;;;;;;;;;4996520;28;95093;-73
2022/03/22 06:54:14;;;;;;;60.65;35.45;;;;;;;;;;4997156;28;93624;-72
2022/03/22 06:56:41;;;;;;;65.00;37.40;;;;;;;;;;4997336;28;92371;-72
2022/03/22 06:59:08;;;;;;;63.78;37.13;;;;;;;;;;4996479;28;94428;-73
2022/03/22 07:01:35;;;;;;;69.68;35.05;;;;;;;;;;4996573;28;93473;-72
2022/03/22 07:04:01;;;;;;;61.95;38.28;;;;;;;;;;4996787;28;92314;-73
2022/03/22 07:06:27;;;;;;;61.17;36.22;;;;;;;;;;4999622;28;92086;-72
2022/03/22 07:08:54;;;;;;;64.43;37.30;;;;;;;;;;4996751;28;92361;-72
2022/03/22 07:14:05;;;;;;;58.00;34.75;;;;;;;;;;4994921;28;96482;-74
2022/03/22 07:16:31;;;;;;;62.80;37.45;;;;;;;;;;4995398;28;92286;-73
2022/03/22 07:18:58;;;;;;;64.43;39.83;;;;;;;;;;4995867;28;93491;-74
2022/03/22 07:21:25;;;;;;;56.63;37.63;;;;;;;;;;4996470;28;93876;-71
2022/03/22 07:23:51;;;;;;;62.58;35.67;;;;;;;;;;4996123;28;92382;-71
2022/03/22 07:26:18;;;;;;;59.35;39.08;;;;;;;;;;4996278;28;92697;-70
2022/03/22 07:28:45;;;;;;;57.97;37.20;;;;;;;;;;4998993;28;94656;-71
2022/03/22 07:31:11;;;;;;;58.28;36.38;;;;;;;;;;4996810;28;93951;-72
2022/03/22 07:33:37;;;;;;;56.47;35.78;;;;;;;;;;4995846;28;93543;-72
2022/03/22 07:36:04;;;;;;;57.97;37.70;;;;;;;;;;4996209;28;92279;-71
2022/03/22 07:38:30;;;;;;;62.28;38.85;;;;;;;;;;4994820;28;94805;-71
2022/03/22 07:40:57;;;;;;;64.32;39.13;;;;;;;;;;4995207;28;94207;-70
2022/03/22 07:43:23;;;;;;;56.40;36.30;;;;;;;;;;4995851;28;92148;-74
2022/03/22 07:45:49;;;;;;;52.83;36.63;;;;;;;;;;4995945;28;93942;-72
2022/03/22 07:48:16;;;;;;;63.83;38.00;;;;;;;;;;4995517;28;93999;-73
2022/03/22 07:53:27;;;;;;;61.92;37.30;;;;;;;;;;4995863;28;93574;-71
2022/03/22 07:55:53;;;;;;;63.53;38.42;;;;;;;;;;4998567;28;91481;-74
2022/03/22 07:58:21;;;;;;;61.75;37.53;;;;;;;;;;4999620;28;92353;-74
2022/03/22 08:00:47;;;;;;;60.42;37.33;;;;;;;;;;4999033;28;93707;-71
2022/03/22 08:03:17;;;;;;;61.65;37.22;;;;;;;;;;4997922;28;94596;-71
2022/03/22 08:05:45;;;;;;;61.47;38.72;;;;;;;;;;5003292;28;95823;-73
2022/03/22 08:08:12;;;;;;;55.75;37.42;;;;;;;;;;5001082;28;95274;-73
2022/03/22 08:10:58;;;;;;;52.45;35.92;;;;;;;;;;4998783;28;93143;-71
2022/03/22 08:13:24;;;;;;;55.30;35.33;;;;;;;;;;5002352;28;93286;-74
2022/03/22 08:15:50;;;;;;;56.33;36.15;;;;;;;;;;4999289;28;92281;-73
2022/03/22 08:18:17;;;;;;;54.40;35.83;;;;;;;;;;4998909;28;93849;-74
2022/03/22 08:20:47;;;;;;;55.60;37.58;;;;;;;;;;4999680;28;93221;-74
2022/03/22 08:23:14;;;;;;;56.40;35.75;;;;;;;;;;4999180;28;92304;-72
2022/03/22 08:25:43;;;;;;;60.92;34.60;;;;;;;;;;4998356;28;93360;-68
2022/03/22 08:28:10;;;;;;;61.40;36.25;;;;;;;;;;4997306;28;95967;-69
2022/03/22 08:30:37;;;;;;;65.43;38.22;;;;;;;;;;4999051;28;92140;-70
2022/03/22 08:33:09;;;;;;;70.75;37.83;;;;;;;;;;5002001;28;93557;-69
2022/03/22 08:35:36;;;;;;;72.15;36.30;;;;;;;;;;4999030;28;92825;-69
2022/03/22 08:38:03;;;;;;;58.20;35.75;;;;;;;;;;4998595;28;93355;-70
2022/03/22 08:40:29;;;;;;;69.07;36.15;;;;;;;;;;4998688;28;93751;-69
2022/03/22 08:42:57;;;;;;;66.10;36.35;;;;;;;;;;5014362;28;92420;-72
2022/03/22 08:45:25;;;;;;;60.25;34.88;;;;;;;;;;4997458;28;93848;-72
2022/03/22 08:47:51;;;;;;;62.45;36.40;;;;;;;;;;5001240;28;93674;-75
2022/03/22 08:50:23;;;;;;;;;;;;;;;;;;5003227;28;92365;-75
2022/03/22 08:52:49;;;;;;;56.30;33.67;;;;;;;;;;4996318;28;121201;-76
2022/03/22 08:55:17;;;;;;;51.38;33.45;;;;;;;;;;5001249;28;93406;-72
2022/03/22 08:57:46;;;;;;;55.72;35.15;;;;;;;;;;4998085;28;93745;-74
2022/03/22 09:00:16;;;;;;;63.67;34.08;;;;;;;;;;4997456;28;94869;-71
2022/03/22 09:02:43;;;;;;;49.40;33.55;;;;;;;;;;4996550;28;92669;-73
2022/03/22 09:07:58;;;;;;;53.35;32.97;;;;;;;;;;4997823;28;92655;-74
2022/03/22 09:10:25;;;;;;;58.47;32.63;;;;;;;;;;4993254;28;91609;-73
2022/03/22 09:12:51;;;;;;;61.17;33.30;;;;;;;;;;4997502;28;92831;-74
2022/03/22 09:15:18;;;;;;;48.83;32.53;;;;;;;;;;4997736;28;92992;-74
2022/03/22 09:17:45;;;;;;;49.97;32.85;;;;;;;;;;4998750;28;94778;-73
2022/03/22 09:20:14;;;;;;;46.67;31.65;;;;;;;;;;4997734;28;93281;-74
2022/03/22 09:22:43;;;;;;;46.58;31.15;;;;;;;;;;4997858;28;92403;-73
2022/03/22 09:25:09;;;;;;;45.30;29.98;;;;;;;;;;4997780;28;93658;-74
2022/03/22 09:27:37;;;;;;;48.28;30.50;;;;;;;;;;4997263;28;93672;-74
2022/03/22 09:30:04;;;;;;;39.72;30.13;;;;;;;;;;4997498;28;92184;-74
2022/03/22 09:32:31;;;;;;;43.50;29.33;;;;;;;;;;4996766;28;93216;-73
2022/03/22 09:35:01;;;;;;;43.97;28.63;;;;;;;;;;4992453;28;95688;-74
2022/03/22 09:37:28;;;;;;;40.97;26.60;;;;;;;;;;4997491;28;92400;-75
2022/03/22 09:39:56;;;;;;;40.70;25.90;;;;;;;;;;5000429;28;93510;-74
2022/03/22 09:42:23;;;;;;;44.85;27.27;;;;;;;;;;4995409;28;94752;-78
2022/03/22 09:44:50;;;;;;;39.65;26.90;;;;;;;;;;4996568;28;96533;-76
2022/03/22 09:47:16;;;;;;;40.97;25.85;;;;;;;;;;4997398;28;93350;-76
2022/03/22 09:49:43;;;;;;;32.78;25.63;;;;;;;;;;4991749;28;92540;-75
2022/03/22 09:52:10;;;;;;;33.63;25.45;;;;;;;;;;4996829;28;93678;-73
2022/03/22 09:54:38;;;;;;;38.03;26.08;;;;;;;;;;4997083;28;92699;-74
2022/03/22 09:57:05;;;;;;;38.42;26.08;;;;;;;;;;4997277;28;92188;-73
2022/03/22 09:59:36;;;;;;;47.92;26.65;;;;;;;;;;4997086;28;92906;-75
2022/03/22 10:02:03;;;;;;;35.87;25.57;;;;;;;;;;4999562;28;93370;-75
2022/03/22 10:04:36;;;;;;;41.38;26.75;;;;;;;;;;4996847;28;93556;-74
2022/03/22 10:07:07;;;;;;;48.35;25.85;;;;;;;;;;4995374;28;94835;-78
2022/03/22 10:09:39;;;;;;;36.72;25.75;;;;;;;;;;4995872;28;92456;-73
2022/03/22 10:12:11;;;;;;;35.33;27.40;;;;;;;;;;4996338;28;93149;-74
2022/03/22 10:14:39;;;;;;;38.30;25.90;;;;;;;;;;4996968;28;93148;-73
2022/03/22 10:17:15;;;;;;;42.58;25.92;;;;;;;;;;4996278;28;93182;-74
2022/03/22 10:19:44;;;;;;;35.22;26.92;;;;;;;;;;4996575;28;93495;-74
2022/03/22 10:22:12;;;;;;;42.17;26.42;;;;;;;;;;4996088;28;94081;-73
2022/03/22 10:24:41;;;;;;;33.80;26.38;;;;;;;;;;4998404;28;91677;-73
2022/03/22 10:27:22;;;;;;;35.72;26.63;;;;;;;;;;4996541;28;93855;-74
2022/03/22 10:30:03;;;;;;;40.90;26.52;;;;;;;;;;4993078;28;92278;-73
2022/03/22 10:32:32;;;;;;;39.95;25.67;;;;;;;;;;4994768;28;94822;-76
2022/03/22 10:35:11;;;;;;;34.95;27.15;;;;;;;;;;4997908;28;93816;-75
2022/03/22 10:37:38;;;;;;;40.40;27.13;;;;;;;;;;4994050;28;92283;-73
2022/03/22 10:40:18;;;;;;;35.42;26.48;;;;;;;;;;4996373;28;93748;-74
2022/03/22 10:42:45;;;;;;;37.20;28.25;;;;;;;;;;4993499;28;93495;-74
2022/03/22 10:45:11;;;;;;;43.88;26.63;;;;;;;;;;4999017;28;93378;-76
2022/03/22 10:47:37;;;;;;;35.22;27.70;;;;;;;;;;4996000;28;93509;-75
2022/03/22 10:50:07;;;;;;;41.97;29.15;;;;;;;;;;4992174;28;91644;-74
2022/03/22 10:52:35;;;;;;;44.80;29.50;;;;;;;;;;4996014;28;92213;-73
2022/03/22 10:55:02;;;;;;;39.65;28.25;;;;;;;;;;4996974;28;93099;-74
2022/03/22 10:57:32;;;;;;;42.38;28.90;;;;;;;;;;5001815;28;94822;-74
2022/03/22 11:00:01;;;;;;;39.15;27.95;;;;;;;;;;4995846;28;95392;-72
2022/03/22 11:02:30;;;;;;;37.88;28.65;;;;;;;;;;4995588;28;93439;-73
2022/03/22 11:04:58;;;;;;;38.20;28.15;;;;;;;;;;4996307;28;92256;-74
2022/03/22 11:07:25;;;;;;;45.08;28.80;;;;;;;;;;4999285;28;92877;-73
2022/03/22 11:09:56;;;;;;;33.03;24.27;;;;;;;;;;4996134;28;92195;-74
2022/03/22 11:12:33;;;;;;;35.60;26.98;;;;;;;;;;4995193;28;93502;-73
2022/03/22 11:15:00;;;;;;;34.60;26.58;;;;;;;;;;4996674;28;92484;-73
2022/03/22 11:17:28;;;;;;;36.15;26.63;;;;;;;;;;4995896;28;92403;-73
2022/03/22 11:19:55;;;;;;;40.33;27.27;;;;;;;;;;4995910;28;96413;-72
2022/03/22 11:22:22;;;;;;;34.28;23.67;;;;;;;;;;4993785;28;96075;-74
2022/03/22 11:24:48;;;;;;;30.73;23.98;;;;;;;;;;4996139;28;92199;-72
2022/03/22 11:27:15;;;;;;;37.92;25.42;;;;;;;;;;4995323;28;92955;-74
2022/03/22 11:29:41;;;;;;;35.50;24.55;;;;;;;;;;4994294;28;93608;-72
2022/03/22 11:34:54;;;;;;;38.88;23.80;;;;;;;;;;4992396;28;93258;-72
2022/03/22 11:37:31;;;;;;;34.90;23.63;;;;;;;;;;4991773;28;92359;-74
2022/03/22 11:42:50;;;;;;;32.38;21.98;;;;;;;;;;4995196;28;93652;-74
2022/03/22 11:45:17;;;;;;;29.38;23.45;;;;;;;;;;4995372;28;92467;-73
2022/03/22 11:47:44;;;;;;;28.98;20.52;;;;;;;;;;4993777;28;94810;-73
2022/03/22 11:50:13;;;;;;;30.65;19.88;;;;;;;;;;4995410;28;93291;-72
2022/03/22 11:52:41;;;;;;;27.30;19.45;;;;;;;;;;4998688;28;92385;-73
2022/03/22 11:55:18;;;;;;;27.65;19.05;;;;;;;;;;4995239;28;93806;-73
2022/03/22 11:57:49;;;;;;;27.90;17.90;;;;;;;;;;4995484;28;92473;-73
2022/03/22 12:00:17;;;;;;;24.33;16.38;;;;;;;;;;4994980;28;94453;-73
2022/03/22 12:02:45;;;;;;;24.88;15.93;;;;;;;;;;4994357;28;93637;-73
2022/03/22 12:05:11;;;;;;;26.50;15.93;;;;;;;;;;4995929;28;91695;-72
2022/03/22 12:07:38;;;;;;;27.08;15.00;;;;;;;;;;4994319;28;92694;-73
2022/03/22 12:10:05;;;;;;;31.20;16.30;;;;;;;;;;4995155;28;93688;-72
2022/03/22 12:12:32;;;;;;;22.17;15.07;;;;;;;;;;4989500;28;94625;-73
2022/03/22 12:15:00;;;;;;;20.13;14.32;;;;;;;;;;4997780;28;95780;-72
2022/03/22 12:17:27;;;;;;;22.10;15.55;;;;;;;;;;4995321;28;93869;-73
2022/03/22 12:19:57;;;;;;;23.17;14.73;;;;;;;;;;4995275;28;93099;-73
2022/03/22 12:22:24;;;;;;;26.55;15.90;;;;;;;;;;4994497;28;93803;-73
2022/03/22 12:24:50;;;;;;;24.63;17.13;;;;;;;;;;4994722;28;92261;-73
2022/03/22 12:27:17;;;;;;;21.90;16.77;;;;;;;;;;4994497;28;93677;-73
2022/03/22 12:29:44;;;;;;;25.20;16.67;;;;;;;;;;4995673;28;93055;-73
2022/03/22 12:32:11;;;;;;;23.92;17.70;;;;;;;;;;4994814;28;92229;-75
2022/03/22 12:34:39;;;;;;;25.67;16.95;;;;;;;;;;4994322;28;93421;-75
2022/03/22 12:37:08;;;;;;;19.63;15.65;;;;;;;;;;4993707;28;94773;-73
2022/03/22 12:39:37;;;;;;;24.60;17.00;;;;;;;;;;4994260;28;97455;-71
2022/03/22 12:42:04;;;;;;;26.60;16.73;;;;;;;;;;4996451;28;94542;-71
2022/03/22 12:44:31;;;;;;;26.67;18.92;;;;;;;;;;4998084;28;92382;-73
2022/03/22 12:46:57;;;;;;;25.98;18.38;;;;;;;;;;4997157;28;94435;-73
2022/03/22 12:49:27;;;;;;;27.08;19.50;;;;;;;;;;4998180;28;93267;-73
2022/03/22 12:51:53;;;;;;;32.75;20.40;;;;;;;;;;4997836;28;92506;-73
2022/03/22 12:54:29;;;;;;;31.55;19.17;;;;;;;;;;4998090;28;93795;-73
2022/03/22 12:57:00;;;;;;;28.30;18.55;;;;;;;;;;5000652;28;95102;-73
2022/03/22 12:59:27;;;;;;;30.60;18.63;;;;;;;;;;4998303;28;93501;-74
2022/03/22 13:01:58;;;;;;;29.60;19.65;;;;;;;;;;4995501;28;95499;-72
2022/03/22 13:04:26;;;;;;;32.70;20.50;;;;;;;;;;4999535;28;92233;-74
2022/03/22 13:07:01;;;;;;;29.08;20.48;;;;;;;;;;4998285;28;93560;-74
2022/03/22 13:12:15;;;;;;;27.60;20.45;;;;;;;;;;4997383;28;119092;-73
2022/03/22 13:17:32;;;;;;;27.52;19.45;;;;;;;;;;4991118;28;94388;-75
2022/03/22 13:20:00;;;;;;;23.85;18.67;;;;;;;;;;5001408;28;91621;-74
2022/03/22 13:22:27;;;;;;;24.83;18.83;;;;;;;;;;4997456;28;94053;-73
2022/03/22 13:25:10;;;;;;;25.77;17.88;;;;;;;;;;4994027;28;92208;-74
2022/03/22 13:27:37;;;;;;;27.75;19.67;;;;;;;;;;4993077;28;94634;-73
2022/03/22 13:30:15;;;;;;;26.88;18.63;;;;;;;;;;4997657;28;93743;-74
2022/03/22 13:32:41;;;;;;;28.23;19.27;;;;;;;;;;4996903;28;92378;-73
2022/03/22 13:35:08;;;;;;;27.00;19.00;;;;;;;;;;4997546;28;92480;-73
2022/03/22 13:37:50;;;;;;;27.92;19.00;;;;;;;;;;4997443;28;94113;-73
2022/03/22 13:40:17;;;;;;;28.83;18.73;;;;;;;;;;4997248;28;92567;-74
2022/03/22 13:42:57;;;;;;;24.48;17.80;;;;;;;;;;4999733;28;92904;-74
2022/03/22 13:45:24;;;;;;;27.75;19.00;;;;;;;;;;4997547;28;92375;-73
2022/03/22 13:47:58;;;;;;;29.95;18.83;;;;;;;;;;4991937;28;92228;-73
2022/03/22 13:50:26;;;;;;;32.47;18.42;;;;;;;;;;4997134;28;93077;-72
2022/03/22 13:53:06;;;;;;;30.52;19.38;;;;;;;;;;4994853;28;94634;-73
2022/03/22 13:55:34;;;;;;;26.42;18.55;;;;;;;;;;4993208;28;95203;-73
2022/03/22 13:58:01;;;;;;;26.63;19.25;;;;;;;;;;4997086;28;93527;-71
2022/03/22 14:00:47;;;;;;;26.27;18.00;;;;;;;;;;4997647;28;92504;-72
2022/03/22 14:03:15;;;;;;;27.95;18.23;;;;;;;;;;4997453;28;93562;-74
2022/03/22 14:05:43;;;;;;;28.48;17.92;;;;;;;;;;5000461;28;94739;-74
2022/03/22 14:08:12;;;;;;;28.42;18.40;;;;;;;;;;4996774;28;93047;-73
2022/03/22 14:10:39;;;;;;;29.20;17.73;;;;;;;;;;4998141;28;91896;-70
2022/03/22 14:13:06;;;;;;;29.48;18.83;;;;;;;;;;4997339;28;92425;-70
2022/03/22 14:15:33;;;;;;;28.42;18.77;;;;;;;;;;4997162;28;93909;-71
2022/03/22 14:17:59;;;;;;;31.45;19.35;;;;;;;;;;4995607;28;95943;-70
2022/03/22 14:20:27;;;;;;;29.42;18.88;;;;;;;;;;4997821;28;92247;-69
2022/03/22 14:22:54;;;;;;;32.08;17.60;;;;;;;;;;4997960;28;93378;-71
2022/03/22 14:25:21;;;;;;;36.30;18.50;;;;;;;;;;4997410;28;93661;-69
2022/03/22 14:27:48;;;;;;;30.65;18.45;;;;;;;;;;5000305;28;92255;-70
2022/03/22 14:30:16;;;;;;;25.92;18.10;;;;;;;;;;4995932;28;94328;-72
2022/03/22 14:32:43;;;;;;;27.17;18.35;;;;;;;;;;4997358;28;92268;-72
2022/03/22 14:37:56;;;;;;;29.88;19.08;;;;;;;;;;4997141;28;93630;-72
2022/03/22 14:40:23;;;;;;;27.65;17.38;;;;;;;;;;4996972;28;92319;-73
2022/03/22 14:42:51;;;;;;;24.42;17.38;;;;;;;;;;4993963;28;94710;-72
2022/03/22 14:45:18;;;;;;;29.98;18.48;;;;;;;;;;4996704;28;93443;-72
2022/03/22 14:47:49;;;;;;;26.20;18.48;;;;;;;;;;4999765;28;92264;-70
2022/03/22 14:50:17;;;;;;;27.67;18.25;;;;;;;;;;4996833;28;93555;-70
2022/03/22 14:55:30;;;;;;;27.77;18.02;;;;;;;;;;4996926;28;92668;-68
2022/03/22 15:00:42;;;;;;;29.98;18.05;;;;;;;;;;4996868;28;91576;-77
2022/03/22 15:03:09;;;;;;;25.40;17.38;;;;;;;;;;4996744;28;92966;-77
2022/03/22 15:05:42;;;;;;;25.95;17.52;;;;;;;;;;4996306;28;93364;-74
2022/03/22 15:08:09;;;;;;;26.65;17.75;;;;;;;;;;4995391;28;94563;-74
2022/03/22 15:10:41;;;;;;;26.73;17.92;;;;;;;;;;5003386;28;95216;-74
2022/03/22 15:13:08;;;;;;;23.83;16.95;;;;;;;;;;4998578;28;92493;-72
2022/03/22 15:15:35;;;;;;;38.03;18.20;;;;;;;;;;4996868;28;93914;-73